Time;durP1;ratioP1;P1;durP2;ratioP2;P2;SDS_P1;SDS_P2;PMS_P1;PMS_P2;Temp;Humidity;BMP_temperature;BMP_pressure;BME280_temperature;BME280_humidity;BME280_pressure;Samples;Min_cycle;Max_cycle;Signal;HPM_P1;HPM_P2
2023/05/07 00:00:21;;;;;;;;;;;;;;;;;;5034782;28;19939;-23
2023/05/07 00:02:47;;;;;;;;;;;;;;;;;;5034481;28;19909;-24
2023/05/07 00:05:13;;;;;;;;;;;;;;;;;;5034144;28;19921;-22
2023/05/07 00:07:39;;;;;;;;;;;;;;;;;;5034458;28;19917;-22
2023/05/07 00:10:06;;;;;;;;;;;;;;;;;;5034302;28;19979;-22
2023/05/07 00:12:33;;;;;;;;;;;;;;;;;;5034283;28;20313;-25
2023/05/07 00:14:59;;;;;;;;;;;;;;;;;;5034581;28;20352;-28
2023/05/07 00:17:25;;;;;;;;;;;;;;;;;;5034367;28;19909;-28
2023/05/07 00:19:51;;;;;;;;;;;;;;;;;;5034567;28;19909;-21
2023/05/07 00:22:17;;;;;;;;;;;;;;;;;;5034292;28;19909;-24
2023/05/07 00:24:43;;;;;;;;;;;;;;;;;;5034487;28;20285;-23
2023/05/07 00:27:09;;;;;;;;;;;;;;;;;;5034521;28;19944;-23
2023/05/07 00:29:36;;;;;;;;;;;;;;;;;;5034209;28;19909;-22
2023/05/07 00:32:02;;;;;;;;;;;;;;;;;;5034072;28;19910;-23
2023/05/07 00:34:28;;;;;;;;;;;;;;;;;;5034495;28;19909;-23
2023/05/07 00:36:54;;;;;;;;;;;;;;;;;;5034118;28;20343;-24
2023/05/07 00:39:20;;;;;;;;;;;;;;;;;;5034410;28;19909;-28
2023/05/07 00:41:47;;;;;;;;;;;;;;;;;;5034369;28;19999;-23
2023/05/07 00:44:13;;;;;;;;;;;;;;;;;;5034309;28;19971;-29
2023/05/07 00:46:39;;;;;;;;;;;;;;;;;;5034051;28;20284;-23
2023/05/07 00:49:04;;;;;;;;;;;;;;;;;;5034532;28;19916;-22
2023/05/07 00:51:30;;;;;;;;;;;;;;;;;;5034208;28;19909;-23
2023/05/07 00:53:56;;;;;;;;;;;;;;;;;;5033947;28;20233;-23
2023/05/07 00:56:22;;;;;;;;;;;;;;;;;;5033913;28;19916;-22
2023/05/07 00:58:48;;;;;;;;;;;;;;;;;;5033993;28;19962;-25
2023/05/07 01:01:16;;;;;;;;;;;;;;;;;;5033949;28;19967;-30
2023/05/07 01:03:42;;;;;;;;;;;;;;;;;;5032864;28;19909;-23
2023/05/07 01:06:08;;;;;;;;;;;;;;;;;;5034780;28;20005;-24
2023/05/07 01:08:34;;;;;;;;;;;;;;;;;;5037784;28;19910;-26
2023/05/07 01:11:00;;;;;;;;;;;;;;;;;;5037816;28;20244;-24
2023/05/07 01:13:26;;;;;;;;;;;;;;;;;;5037620;28;19916;-28
2023/05/07 01:15:52;;;;;;;;;;;;;;;;;;5038148;28;19920;-22
2023/05/07 01:18:18;;;;;;;;;;;;;;;;;;5037406;28;19909;-26
2023/05/07 01:20:44;;;;;;;;;;;;;;;;;;5037211;28;19944;-24
2023/05/07 01:23:10;;;;;;;;;;;;;;;;;;5037383;28;19952;-28
2023/05/07 01:25:36;;;;;;;;;;;;;;;;;;5037407;28;19956;-27
2023/05/07 01:28:02;;;;;;;;;;;;;;;;;;5037443;28;19909;-25
2023/05/07 01:30:28;;;;;;;;;;;;;;;;;;5037066;28;20350;-22
2023/05/07 01:32:54;;;;;;;;;;;;;;;;;;5037234;28;19914;-23
2023/05/07 01:35:20;;;;;;;;;;;;;;;;;;5037106;28;19910;-22
2023/05/07 01:37:46;;;;;;;;;;;;;;;;;;5037089;28;19985;-21
2023/05/07 01:40:12;;;;;;;;;;;;;;;;;;5037312;28;19939;-22
2023/05/07 01:42:38;;;;;;;;;;;;;;;;;;5036896;28;20067;-25
2023/05/07 01:45:04;;;;;;;;;;;;;;;;;;5037011;28;19924;-22
2023/05/07 01:47:30;;;;;;;;;;;;;;;;;;5037116;28;19909;-22
2023/05/07 01:49:56;;;;;;;;;;;;;;;;;;5037061;28;20351;-24
2023/05/07 01:52:22;;;;;;;;;;;;;;;;;;5036676;28;20288;-23
2023/05/07 01:54:48;;;;;;;;;;;;;;;;;;5036955;28;20336;-27
2023/05/07 01:57:14;;;;;;;;;;;;;;;;;;5036648;28;20336;-22
2023/05/07 01:59:39;;;;;;;;;;;;;;;;;;5036599;28;20233;-24
2023/05/07 02:02:05;;;;;;;;;;;;;;;;;;5036763;28;19909;-25
2023/05/07 02:04:31;;;;;;;;;;;;;;;;;;5036266;28;20303;-22
2023/05/07 02:06:57;;;;;;;;;;;;;;;;;;5036765;28;19909;-22
2023/05/07 02:09:23;;;;;;;;;;;;;;;;;;5036445;28;19920;-23
2023/05/07 02:11:49;;;;;;;;;;;;;;;;;;5036367;28;19967;-22
2023/05/07 02:14:15;;;;;;;;;;;;;;;;;;5036380;28;19909;-22
2023/05/07 02:16:41;;;;;;;;;;;;;;;;;;5036503;28;19909;-22
2023/05/07 02:19:07;;;;;;;;;;;;;;;;;;5035373;28;19948;-25
2023/05/07 02:21:33;;;;;;;;;;;;;;;;;;5036245;28;19909;-24
2023/05/07 02:23:59;;;;;;;;;;;;;;;;;;5036092;28;19913;-23
2023/05/07 02:26:25;;;;;;;;;;;;;;;;;;5036136;28;19940;-22
2023/05/07 02:28:51;;;;;;;;;;;;;;;;;;5036293;28;20229;-24
2023/05/07 02:31:17;;;;;;;;;;;;;;;;;;5036046;28;20283;-21
2023/05/07 02:33:45;;;;;;;;;;;;;;;;;;5035947;28;19909;-25
2023/05/07 02:36:11;;;;;;;;;;;;;;;;;;5035891;28;20332;-23
2023/05/07 02:38:37;;;;;;;;;;;;;;;;;;5036109;28;19913;-23
2023/05/07 02:41:03;;;;;;;;;;;;;;;;;;5035766;28;20303;-22
2023/05/07 02:43:29;;;;;;;;;;;;;;;;;;5035699;28;19913;-23
2023/05/07 02:45:55;;;;;;;;;;;;;;;;;;5035653;28;19913;-24
2023/05/07 02:48:21;;;;;;;;;;;;;;;;;;5035983;28;19921;-23
2023/05/07 02:50:47;;;;;;;;;;;;;;;;;;5035673;28;19913;-23
2023/05/07 02:53:13;;;;;;;;;;;;;;;;;;5035559;28;20058;-24
2023/05/07 02:55:39;;;;;;;;;;;;;;;;;;5035529;28;19924;-23
2023/05/07 02:58:05;;;;;;;;;;;;;;;;;;5035491;28;19963;-23
2023/05/07 03:00:30;;;;;;;;;;;;;;;;;;5035684;28;19913;-23
2023/05/07 03:02:56;;;;;;;;;;;;;;;;;;5035334;28;19924;-22
2023/05/07 03:05:22;;;;;;;;;;;;;;;;;;5035109;28;19931;-24
2023/05/07 03:07:48;;;;;;;;;;;;;;;;;;5035491;28;19967;-26
2023/05/07 03:10:14;;;;;;;;;;;;;;;;;;5035477;28;19967;-24
2023/05/07 03:12:40;;;;;;;;;;;;;;;;;;5035170;28;19924;-22
2023/05/07 03:15:06;;;;;;;;;;;;;;;;;;5035423;28;19924;-23
2023/05/07 03:17:32;;;;;;;;;;;;;;;;;;5035156;28;19909;-22
2023/05/07 03:19:58;;;;;;;;;;;;;;;;;;5035080;28;20248;-24
2023/05/07 03:22:24;;;;;;;;;;;;;;;;;;5034931;28;19953;-25
2023/05/07 03:24:50;;;;;;;;;;;;;;;;;;5035242;28;19925;-24
2023/05/07 03:27:16;;;;;;;;;;;;;;;;;;5035308;28;19943;-22
2023/05/07 03:29:42;;;;;;;;;;;;;;;;;;5034648;28;19913;-29
2023/05/07 03:32:08;;;;;;;;;;;;;;;;;;5035094;28;19909;-25
2023/05/07 03:34:34;;;;;;;;;;;;;;;;;;5034885;28;19955;-24
2023/05/07 03:37:00;;;;;;;;;;;;;;;;;;5034870;28;19931;-25
2023/05/07 03:39:26;;;;;;;;;;;;;;;;;;5034774;28;19921;-24
2023/05/07 03:41:52;;;;;;;;;;;;;;;;;;5034658;28;19928;-30
2023/05/07 03:44:18;;;;;;;;;;;;;;;;;;5034626;28;19961;-22
2023/05/07 03:46:44;;;;;;;;;;;;;;;;;;5034948;28;19909;-26
2023/05/07 03:49:10;;;;;;;;;;;;;;;;;;5034668;28;19913;-23
2023/05/07 03:51:36;;;;;;;;;;;;;;;;;;5034900;28;19956;-25
2023/05/07 03:54:02;;;;;;;;;;;;;;;;;;5034521;28;20267;-24
2023/05/07 03:56:28;;;;;;;;;;;;;;;;;;5034571;28;19959;-24
2023/05/07 03:58:54;;;;;;;;;;;;;;;;;;5034622;28;19909;-27
2023/05/07 04:01:20;;;;;;;;;;;;;;;;;;5034561;28;20380;-30
2023/05/07 04:03:46;;;;;;;;;;;;;;;;;;5034681;28;20071;-23
2023/05/07 04:06:12;;;;;;;;;;;;;;;;;;5034181;28;19921;-23
2023/05/07 04:08:38;;;;;;;;;;;;;;;;;;5034697;28;20351;-24
2023/05/07 04:11:04;;;;;;;;;;;;;;;;;;5034457;28;19960;-26
2023/05/07 04:13:30;;;;;;;;;;;;;;;;;;5034560;28;19905;-21
2023/05/07 04:15:56;;;;;;;;;;;;;;;;;;5034439;28;20386;-22
2023/05/07 04:18:22;;;;;;;;;;;;;;;;;;5034366;28;19988;-26
2023/05/07 04:20:49;;;;;;;;;;;;;;;;;;5034549;28;19921;-23
2023/05/07 04:23:15;;;;;;;;;;;;;;;;;;5034267;28;19920;-24
2023/05/07 04:25:41;;;;;;;;;;;;;;;;;;5034177;28;19913;-22
2023/05/07 04:28:07;;;;;;;;;;;;;;;;;;5034305;28;20405;-25
2023/05/07 04:30:33;;;;;;;;;;;;;;;;;;5034521;28;19944;-24
2023/05/07 04:32:59;;;;;;;;;;;;;;;;;;5034150;28;20324;-24
2023/05/07 04:35:25;;;;;;;;;;;;;;;;;;5034464;28;20287;-25
2023/05/07 04:37:51;;;;;;;;;;;;;;;;;;5034193;28;19963;-26
2023/05/07 04:40:17;;;;;;;;;;;;;;;;;;5034172;28;19913;-22
2023/05/07 04:42:43;;;;;;;;;;;;;;;;;;5037865;28;19909;-23
2023/05/07 04:45:10;;;;;;;;;;;;;;;;;;5038184;28;19913;-25
2023/05/07 04:47:36;;;;;;;;;;;;;;;;;;5038023;28;19980;-25
2023/05/07 04:50:02;;;;;;;;;;;;;;;;;;5038284;28;19939;-21
2023/05/07 04:52:28;;;;;;;;;;;;;;;;;;5038013;28;19910;-24
2023/05/07 04:54:54;;;;;;;;;;;;;;;;;;5037785;28;19913;-22
2023/05/07 04:57:20;;;;;;;;;;;;;;;;;;5038568;28;20236;-22
2023/05/07 04:59:46;;;;;;;;;;;;;;;;;;5036675;28;19909;-26
2023/05/07 05:02:11;;;;;;;;;;;;;;;;;;5037822;28;19909;-25
2023/05/07 05:04:37;;;;;;;;;;;;;;;;;;5037544;28;19925;-22
2023/05/07 05:07:04;;;;;;;;;;;;;;;;;;5037641;28;19917;-22
2023/05/07 05:09:29;;;;;;;;;;;;;;;;;;5037831;28;19909;-28
2023/05/07 05:11:55;;;;;;;;;;;;;;;;;;5037701;28;19920;-25
2023/05/07 05:14:21;;;;;;;;;;;;;;;;;;5037514;28;19910;-25
2023/05/07 05:16:47;;;;;;;;;;;;;;;;;;5037680;28;19917;-23
2023/05/07 05:19:13;;;;;;;;;;;;;;;;;;5037412;28;19909;-25
2023/05/07 05:21:39;;;;;;;;;;;;;;;;;;5037566;28;19909;-24
2023/05/07 05:24:05;;;;;;;;;;;;;;;;;;5036222;28;19909;-23
2023/05/07 05:26:31;;;;;;;;;;;;;;;;;;5037273;28;20003;-23
2023/05/07 05:28:57;;;;;;;;;;;;;;;;;;5037242;28;19909;-22
2023/05/07 05:31:23;;;;;;;;;;;;;;;;;;5037167;28;19909;-22
2023/05/07 05:33:49;;;;;;;;;;;;;;;;;;5037091;28;19953;-30
2023/05/07 05:36:15;;;;;;;;;;;;;;;;;;5037052;28;19916;-27
2023/05/07 05:38:41;;;;;;;;;;;;;;;;;;5037009;28;19909;-28
2023/05/07 05:41:07;;;;;;;;;;;;;;;;;;5037051;28;20003;-28
2023/05/07 05:43:33;;;;;;;;;;;;;;;;;;5037724;28;19921;-26
2023/05/07 05:46:00;;;;;;;;;;;;;;;;;;5036793;28;19913;-23
2023/05/07 05:48:26;;;;;;;;;;;;;;;;;;5036884;28;20374;-23
2023/05/07 05:50:52;;;;;;;;;;;;;;;;;;5036860;28;19909;-25
2023/05/07 05:53:18;;;;;;;;;;;;;;;;;;5036952;28;19992;-23
2023/05/07 05:55:44;;;;;;;;;;;;;;;;;;5036964;28;20363;-25
2023/05/07 05:58:10;;;;;;;;;;;;;;;;;;5036639;28;20275;-23
2023/05/07 06:00:36;;;;;;;;;;;;;;;;;;5036648;28;19921;-25
2023/05/07 06:03:02;;;;;;;;;;;;;;;;;;5036612;28;19909;-22
2023/05/07 06:05:28;;;;;;;;;;;;;;;;;;5036428;28;20111;-27
2023/05/07 06:07:54;;;;;;;;;;;;;;;;;;5036497;28;20007;-24
2023/05/07 06:10:20;;;;;;;;;;;;;;;;;;5036731;28;19920;-24
2023/05/07 06:12:46;;;;;;;;;;;;;;;;;;5036357;28;19940;-24
2023/05/07 06:15:12;;;;;;;;;;;;;;;;;;5036887;28;20347;-24
2023/05/07 06:17:38;;;;;;;;;;;;;;;;;;5036561;28;19909;-23
2023/05/07 06:20:03;;;;;;;;;;;;;;;;;;5036249;28;19910;-26
2023/05/07 06:22:29;;;;;;;;;;;;;;;;;;5036847;28;20016;-29
2023/05/07 06:24:55;;;;;;;;;;;;;;;;;;5036340;28;19913;-25
2023/05/07 06:27:21;;;;;;;;;;;;;;;;;;5036134;28;19974;-25
2023/05/07 06:29:47;;;;;;;;;;;;;;;;;;5036070;28;19913;-22
2023/05/07 06:32:13;;;;;;;;;;;;;;;;;;5036010;28;20316;-27
2023/05/07 06:34:39;;;;;;;;;;;;;;;;;;5036022;28;20026;-21
2023/05/07 06:37:05;;;;;;;;;;;;;;;;;;5035951;28;19909;-25
2023/05/07 06:39:31;;;;;;;;;;;;;;;;;;5035911;28;19963;-23
2023/05/07 06:41:57;;;;;;;;;;;;;;;;;;5036088;28;19909;-24
2023/05/07 06:44:23;;;;;;;;;;;;;;;;;;5035750;28;19913;-26
2023/05/07 06:46:49;;;;;;;;;;;;;;;;;;5036050;28;19909;-23
2023/05/07 06:49:15;;;;;;;;;;;;;;;;;;5035995;28;19920;-24
2023/05/07 06:51:41;;;;;;;;;;;;;;;;;;5035901;28;19917;-25
2023/05/07 06:54:07;;;;;;;;;;;;;;;;;;5035527;28;19909;-23
2023/05/07 06:56:33;;;;;;;;;;;;;;;;;;5035565;28;19909;-24
2023/05/07 06:58:59;;;;;;;;;;;;;;;;;;5035815;28;19909;-23
2023/05/07 07:01:25;;;;;;;;;;;;;;;;;;5035599;28;20376;-23
2023/05/07 07:03:51;;;;;;;;;;;;;;;;;;5034957;28;19909;-26
2023/05/07 07:06:17;;;;;;;;;;;;;;;;;;5035223;28;19975;-24
2023/05/07 07:08:43;;;;;;;;;;;;;;;;;;5035818;28;20333;-25
2023/05/07 07:11:09;;;;;;;;;;;;;;;;;;5035268;28;20347;-28
2023/05/07 07:13:35;;;;;;;;;;;;;;;;;;5035184;28;20406;-23
2023/05/07 07:16:01;;;;;;;;;;;;;;;;;;5035426;28;19917;-25
2023/05/07 07:18:27;;;;;;;;;;;;;;;;;;5035202;28;19905;-25
2023/05/07 07:20:53;;;;;;;;;;;;;;;;;;5035448;28;20332;-23
2023/05/07 07:23:19;;;;;;;;;;;;;;;;;;5035093;28;19905;-30
2023/05/07 07:25:45;;;;;;;;;;;;;;;;;;5035296;28;20012;-24
2023/05/07 07:28:11;;;;;;;;;;;;;;;;;;5035287;28;20325;-27
2023/05/07 07:30:37;;;;;;;;;;;;;;;;;;5035008;28;19909;-25
2023/05/07 07:33:03;;;;;;;;;;;;;;;;;;5033916;28;19910;-24
2023/05/07 07:35:29;;;;;;;;;;;;;;;;;;5034908;28;20000;-25
2023/05/07 07:37:55;;;;;;;;;;;;;;;;;;5034806;28;19909;-27
2023/05/07 07:40:21;;;;;;;;;;;;;;;;;;5034852;28;19909;-25
2023/05/07 07:42:47;;;;;;;;;;;;;;;;;;5034968;28;19924;-26
2023/05/07 07:45:13;;;;;;;;;;;;;;;;;;5034979;28;19913;-27
2023/05/07 07:47:39;;;;;;;;;;;;;;;;;;5034693;28;19944;-26
2023/05/07 07:50:05;;;;;;;;;;;;;;;;;;5034916;28;19909;-29
2023/05/07 07:52:31;;;;;;;;;;;;;;;;;;5034532;28;19962;-24
2023/05/07 07:54:57;;;;;;;;;;;;;;;;;;5034658;28;20004;-26
2023/05/07 07:57:23;;;;;;;;;;;;;;;;;;5034867;28;19909;-24
2023/05/07 07:59:49;;;;;;;;;;;;;;;;;;5034868;28;19920;-25
2023/05/07 08:02:15;;;;;;;;;;;;;;;;;;5034464;28;19909;-23
2023/05/07 08:04:43;;;;;;;;;;;;;;;;;;5034416;28;19932;-23
2023/05/07 08:07:09;;;;;;;;;;;;;;;;;;5034423;28;19913;-24
2023/05/07 08:09:35;;;;;;;;;;;;;;;;;;5034765;28;20350;-27
2023/05/07 08:12:01;;;;;;;;;;;;;;;;;;5034656;28;19941;-25
2023/05/07 08:14:28;;;;;;;;;;;;;;;;;;5033461;28;19913;-26
2023/05/07 08:16:54;;;;;;;;;;;;;;;;;;5036881;28;19909;-24
2023/05/07 08:19:20;;;;;;;;;;;;;;;;;;5039303;28;19919;-28
2023/05/07 08:21:47;;;;;;;;;;;;;;;;;;5038541;28;20255;-25
2023/05/07 08:24:13;;;;;;;;;;;;;;;;;;5038625;28;19910;-21
2023/05/07 08:26:39;;;;;;;;;;;;;;;;;;5038347;28;20394;-22
2023/05/07 08:29:05;;;;;;;;;;;;;;;;;;5038305;28;20347;-23
2023/05/07 08:31:31;;;;;;;;;;;;;;;;;;5038284;28;19909;-25
2023/05/07 08:33:57;;;;;;;;;;;;;;;;;;5038480;28;19909;-24
2023/05/07 08:36:23;;;;;;;;;;;;;;;;;;5038273;28;19909;-22
2023/05/07 08:38:49;;;;;;;;;;;;;;;;;;5038246;28;19909;-25
2023/05/07 08:41:15;;;;;;;;;;;;;;;;;;5038195;28;20404;-24
2023/05/07 08:43:41;;;;;;;;;;;;;;;;;;5038113;28;19909;-24
2023/05/07 08:46:07;;;;;;;;;;;;;;;;;;5038258;28;19996;-23
2023/05/07 08:48:33;;;;;;;;;;;;;;;;;;5038268;28;20312;-24
2023/05/07 08:50:59;;;;;;;;;;;;;;;;;;5037944;28;20255;-26
2023/05/07 08:53:25;;;;;;;;;;;;;;;;;;5037942;28;19959;-25
2023/05/07 08:55:51;;;;;;;;;;;;;;;;;;5037869;28;19920;-29
2023/05/07 08:58:17;;;;;;;;;;;;;;;;;;5038084;28;19909;-28
2023/05/07 09:00:43;;;;;;;;;;;;;;;;;;5037688;28;19944;-28
2023/05/07 09:03:12;;;;;;;;;;;;;;;;;;5037658;28;19909;-25
2023/05/07 09:05:38;;;;;;;;;;;;;;;;;;5037461;28;19967;-25
2023/05/07 09:08:04;;;;;;;;;;;;;;;;;;5037653;28;19917;-22
2023/05/07 09:10:30;;;;;;;;;;;;;;;;;;5037544;28;19909;-23
2023/05/07 09:12:55;;;;;;;;;;;;;;;;;;5037549;28;20214;-22
2023/05/07 09:15:21;;;;;;;;;;;;;;;;;;5037510;28;19909;-21
2023/05/07 09:17:47;;;;;;;;;;;;;;;;;;5036423;28;19932;-27
2023/05/07 09:20:13;;;;;;;;;;;;;;;;;;5037395;28;19944;-22
2023/05/07 09:22:39;;;;;;;;;;;;;;;;;;5037308;28;19920;-25
2023/05/07 09:25:05;;;;;;;;;;;;;;;;;;5037715;28;20020;-22
2023/05/07 09:27:31;;;;;;;;;;;;;;;;;;5036844;28;19909;-26
2023/05/07 09:29:57;;;;;;;;;;;;;;;;;;5037725;28;19909;-24
2023/05/07 09:32:23;;;;;;;;;;;;;;;;;;5037369;28;19920;-22
2023/05/07 09:34:49;;;;;;;;;;;;;;;;;;5037199;28;19963;-24
2023/05/07 09:37:15;;;;;;;;;;;;;;;;;;5036108;28;19959;-28
2023/05/07 09:39:41;;;;;;;;;;;;;;;;;;5037286;28;20368;-24
2023/05/07 09:42:07;;;;;;;;;;;;;;;;;;5037106;28;20344;-23
2023/05/07 09:44:33;;;;;;;;;;;;;;;;;;5036823;28;19913;-25
2023/05/07 09:46:59;;;;;;;;;;;;;;;;;;5037155;28;19944;-26
2023/05/07 09:49:25;;;;;;;;;;;;;;;;;;5036903;28;19909;-24
2023/05/07 09:51:51;;;;;;;;;;;;;;;;;;5036775;28;19921;-23
2023/05/07 09:54:17;;;;;;;;;;;;;;;;;;5036784;28;19913;-24
2023/05/07 09:56:42;;;;;;;;;;;;;;;;;;5036993;28;19913;-22
2023/05/07 09:59:08;;;;;;;;;;;;;;;;;;5036918;28;19928;-23
2023/05/07 10:01:34;;;;;;;;;;;;;;;;;;5036893;28;19939;-23
2023/05/07 10:04:00;;;;;;;;;;;;;;;;;;5036406;28;19909;-25
2023/05/07 10:06:26;;;;;;;;;;;;;;;;;;5036690;28;19946;-25
2023/05/07 10:08:52;;;;;;;;;;;;;;;;;;5036807;28;19919;-23
2023/05/07 10:11:18;;;;;;;;;;;;;;;;;;5036745;28;20233;-25
2023/05/07 10:13:44;;;;;;;;;;;;;;;;;;5036389;28;19909;-26
2023/05/07 10:16:10;;;;;;;;;;;;;;;;;;5036668;28;19916;-23
2023/05/07 10:18:36;;;;;;;;;;;;;;;;;;5036372;28;19914;-23
2023/05/07 10:21:02;;;;;;;;;;;;;;;;;;5036338;28;19909;-24
2023/05/07 10:23:28;;;;;;;;;;;;;;;;;;5036204;28;19932;-24
2023/05/07 10:25:54;;;;;;;;;;;;;;;;;;5036160;28;20290;-23
2023/05/07 10:28:20;;;;;;;;;;;;;;;;;;5036168;28;19909;-25
2023/05/07 10:30:46;;;;;;;;;;;;;;;;;;5036141;28;19909;-24
2023/05/07 10:33:12;;;;;;;;;;;;;;;;;;5035988;28;19925;-23
2023/05/07 10:35:38;;;;;;;;;;;;;;;;;;5036021;28;19909;-26
2023/05/07 10:38:04;;;;;;;;;;;;;;;;;;5035601;28;20251;-24
2023/05/07 10:40:30;;;;;;;;;;;;;;;;;;5036035;28;19909;-26
2023/05/07 10:42:56;;;;;;;;;;;;;;;;;;5036110;28;19920;-23
2023/05/07 10:45:22;;;;;;;;;;;;;;;;;;5035791;28;19920;-28
2023/05/07 10:47:48;;;;;;;;;;;;;;;;;;5036053;28;19996;-22
2023/05/07 10:50:14;;;;;;;;;;;;;;;;;;5035776;28;20328;-27
2023/05/07 10:52:40;;;;;;;;;;;;;;;;;;5035640;28;20259;-25
2023/05/07 10:55:06;;;;;;;;;;;;;;;;;;5035844;28;20252;-24
2023/05/07 10:57:32;;;;;;;;;;;;;;;;;;5035540;28;20004;-25
2023/05/07 10:59:58;;;;;;;;;;;;;;;;;;5035549;28;19963;-25
2023/05/07 11:02:23;;;;;;;;;;;;;;;;;;5035422;28;19909;-25
2023/05/07 11:04:49;;;;;;;;;;;;;;;;;;5035392;28;19972;-22
2023/05/07 11:07:15;;;;;;;;;;;;;;;;;;5035448;28;19909;-26
2023/05/07 11:09:41;;;;;;;;;;;;;;;;;;5035457;28;19916;-24
2023/05/07 11:12:07;;;;;;;;;;;;;;;;;;5034269;28;19910;-23
2023/05/07 11:14:33;;;;;;;;;;;;;;;;;;5035286;28;19910;-24
2023/05/07 11:16:59;;;;;;;;;;;;;;;;;;5034233;28;19909;-25
2023/05/07 11:19:25;;;;;;;;;;;;;;;;;;5035415;28;19916;-24
2023/05/07 11:21:51;;;;;;;;;;;;;;;;;;5035401;28;20058;-25
2023/05/07 11:24:17;;;;;;;;;;;;;;;;;;5035329;28;19913;-26
2023/05/07 11:26:43;;;;;;;;;;;;;;;;;;5035091;28;19967;-26
2023/05/07 11:29:11;;;;;;;;;;;;;;;;;;5034335;28;21222;-24
2023/05/07 11:31:37;;;;;;;;;;;;;;;;;;5035100;28;20004;-28
2023/05/07 11:34:03;;;;;;;;;;;;;;;;;;5033843;28;19905;-24
2023/05/07 11:36:29;;;;;;;;;;;;;;;;;;5035176;28;19913;-26
2023/05/07 11:38:55;;;;;;;;;;;;;;;;;;5034930;28;19905;-22
2023/05/07 11:41:22;;;;;;;;;;;;;;;;;;5034885;28;19909;-23
2023/05/07 11:43:48;;;;;;;;;;;;;;;;;;5034799;28;19924;-24
2023/05/07 11:46:14;;;;;;;;;;;;;;;;;;5035005;28;19913;-25
2023/05/07 11:48:41;;;;;;;;;;;;;;;;;;5034781;28;19920;-24
2023/05/07 11:51:11;;;;;;;;;;;;;;;;;;5034885;28;19913;-24
2023/05/07 11:53:37;;;;;;;;;;;;;;;;;;5035224;28;19948;-26
2023/05/07 11:56:03;;;;;;;;;;;;;;;;;;5034722;28;20390;-23
2023/05/07 11:58:29;;;;;;;;;;;;;;;;;;5034693;28;19947;-23
2023/05/07 12:00:55;;;;;;;;;;;;;;;;;;5034910;28;19914;-22
2023/05/07 12:03:21;;;;;;;;;;;;;;;;;;5034593;28;19999;-22
2023/05/07 12:05:47;;;;;;;;;;;;;;;;;;5034307;28;19935;-22
2023/05/07 12:08:13;;;;;;;;;;;;;;;;;;5034823;28;19967;-28
2023/05/07 12:10:39;;;;;;;;;;;;;;;;;;5034535;28;19910;-22
2023/05/07 12:13:05;;;;;;;;;;;;;;;;;;5034686;28;20257;-26
2023/05/07 12:15:31;;;;;;;;;;;;;;;;;;5034746;28;19967;-23
2023/05/07 12:17:57;;;;;;;;;;;;;;;;;;5034516;28;19962;-26
2023/05/07 12:20:23;;;;;;;;;;;;;;;;;;5034723;28;19944;-25
2023/05/07 12:22:49;;;;;;;;;;;;;;;;;;5034410;28;20005;-30
2023/05/07 12:25:18;;;;;;;;;;;;;;;;;;5034325;28;20265;-22
2023/05/07 12:27:44;;;;;;;;;;;;;;;;;;5034328;28;20415;-27
2023/05/07 12:30:10;;;;;;;;;;;;;;;;;;5034663;28;19909;-25
2023/05/07 12:32:36;;;;;;;;;;;;;;;;;;5034557;28;20410;-26
2023/05/07 12:35:02;;;;;;;;;;;;;;;;;;5034300;28;20221;-25
2023/05/07 12:37:28;;;;;;;;;;;;;;;;;;5034260;28;19909;-26
2023/05/07 12:39:54;;;;;;;;;;;;;;;;;;5034203;28;20225;-23
2023/05/07 12:42:25;;;;;;;;;;;;;;;;;;5034189;28;19909;-23
2023/05/07 12:44:52;;;;;;;;;;;;;;;;;;5034116;28;19917;-24
2023/05/07 12:47:18;;;;;;;;;;;;;;;;;;5034147;28;19909;-26
2023/05/07 12:49:45;;;;;;;;;;;;;;;;;;5034217;28;19919;-22
2023/05/07 12:52:11;;;;;;;;;;;;;;;;;;5034782;28;19917;-23
2023/05/07 12:54:37;;;;;;;;;;;;;;;;;;5034358;28;19909;-22
2023/05/07 12:57:03;;;;;;;;;;;;;;;;;;5035081;28;19910;-22
2023/05/07 12:59:29;;;;;;;;;;;;;;;;;;5033981;28;19916;-26
2023/05/07 13:01:55;;;;;;;;;;;;;;;;;;5034731;28;19967;-24
2023/05/07 13:04:21;;;;;;;;;;;;;;;;;;5037733;28;19917;-29
2023/05/07 13:06:47;;;;;;;;;;;;;;;;;;5037813;28;19913;-32
2023/05/07 13:09:13;;;;;;;;;;;;;;;;;;5037773;28;19909;-26
2023/05/07 13:11:39;;;;;;;;;;;;;;;;;;5037930;28;19909;-24
2023/05/07 13:14:05;;;;;;;;;;;;;;;;;;5037526;28;20000;-24
2023/05/07 13:16:31;;;;;;;;;;;;;;;;;;5036601;28;19948;-23
2023/05/07 13:18:56;;;;;;;;;;;;;;;;;;5037474;28;19913;-24
2023/05/07 13:21:22;;;;;;;;;;;;;;;;;;5037517;28;19909;-27
2023/05/07 13:23:48;;;;;;;;;;;;;;;;;;5037413;28;20004;-24
2023/05/07 13:26:14;;;;;;;;;;;;;;;;;;5037307;28;19913;-24
2023/05/07 13:28:41;;;;;;;;;;;;;;;;;;5037342;28;19909;-25
2023/05/07 13:31:07;;;;;;;;;;;;;;;;;;5037160;28;19909;-24
2023/05/07 13:33:33;;;;;;;;;;;;;;;;;;5037457;28;19963;-28
2023/05/07 13:36:00;;;;;;;;;;;;;;;;;;5037212;28;20336;-28
2023/05/07 13:38:26;;;;;;;;;;;;;;;;;;5037484;28;19948;-25
2023/05/07 13:40:52;;;;;;;;;;;;;;;;;;5037398;28;19916;-27
2023/05/07 13:43:18;;;;;;;;;;;;;;;;;;5037315;28;19916;-23
2023/05/07 13:45:44;;;;;;;;;;;;;;;;;;5036956;28;19935;-27
2023/05/07 13:48:10;;;;;;;;;;;;;;;;;;5037269;28;19910;-23
2023/05/07 13:50:36;;;;;;;;;;;;;;;;;;5037180;28;19996;-26
2023/05/07 13:53:02;;;;;;;;;;;;;;;;;;5036770;28;19970;-24
2023/05/07 13:55:28;;;;;;;;;;;;;;;;;;5037144;28;19971;-22
2023/05/07 13:57:54;;;;;;;;;;;;;;;;;;5036807;28;20252;-27
2023/05/07 14:00:20;;;;;;;;;;;;;;;;;;5036842;28;20307;-25
2023/05/07 14:02:46;;;;;;;;;;;;;;;;;;5036929;28;19912;-26
2023/05/07 14:05:13;;;;;;;;;;;;;;;;;;5036427;28;19939;-29
2023/05/07 14:07:39;;;;;;;;;;;;;;;;;;5036582;28;20229;-26
2023/05/07 14:10:05;;;;;;;;;;;;;;;;;;5036799;28;19916;-23
2023/05/07 14:12:31;;;;;;;;;;;;;;;;;;5036441;28;20400;-27
2023/05/07 14:14:57;;;;;;;;;;;;;;;;;;5035543;28;19967;-22
2023/05/07 14:17:25;;;;;;;;;;;;;;;;;;5036472;28;19909;-21
2023/05/07 14:19:51;;;;;;;;;;;;;;;;;;5036688;28;19910;-23
2023/05/07 14:22:17;;;;;;;;;;;;;;;;;;5036605;28;20344;-25
2023/05/07 14:24:43;;;;;;;;;;;;;;;;;;5036513;28;19913;-26
2023/05/07 14:27:08;;;;;;;;;;;;;;;;;;5035302;28;20267;-25
2023/05/07 14:29:36;;;;;;;;;;;;;;;;;;5036408;28;19917;-26
2023/05/07 14:32:02;;;;;;;;;;;;;;;;;;5036350;28;19909;-23
2023/05/07 14:34:28;;;;;;;;;;;;;;;;;;5036820;28;19975;-23
2023/05/07 14:36:55;;;;;;;;;;;;;;;;;;5036254;28;19910;-26
2023/05/07 14:39:21;;;;;;;;;;;;;;;;;;5035970;28;19947;-23
2023/05/07 14:41:47;;;;;;;;;;;;;;;;;;5035927;28;19960;-24
2023/05/07 14:44:13;;;;;;;;;;;;;;;;;;5035891;28;19979;-25
2023/05/07 14:46:39;;;;;;;;;;;;;;;;;;5035978;28;19924;-25
2023/05/07 14:49:05;;;;;;;;;;;;;;;;;;5034834;28;19913;-24
2023/05/07 14:51:32;;;;;;;;;;;;;;;;;;5036059;28;20275;-25
2023/05/07 14:53:59;;;;;;;;;;;;;;;;;;5035909;28;19909;-23
2023/05/07 14:56:25;;;;;;;;;;;;;;;;;;5035628;28;19945;-25
2023/05/07 14:58:50;;;;;;;;;;;;;;;;;;5035962;28;19953;-22
2023/05/07 15:01:16;;;;;;;;;;;;;;;;;;5035525;28;19921;-23
2023/05/07 15:03:42;;;;;;;;;;;;;;;;;;5035756;28;19909;-26
2023/05/07 15:06:08;;;;;;;;;;;;;;;;;;5034271;28;19960;-25
2023/05/07 15:08:34;;;;;;;;;;;;;;;;;;5035423;28;19909;-21
2023/05/07 15:11:00;;;;;;;;;;;;;;;;;;5035428;28;19956;-23
2023/05/07 15:13:26;;;;;;;;;;;;;;;;;;5035349;28;20417;-22
2023/05/07 15:15:52;;;;;;;;;;;;;;;;;;5034260;28;20012;-23
2023/05/07 15:18:18;;;;;;;;;;;;;;;;;;5035322;28;20372;-26
2023/05/07 15:20:44;;;;;;;;;;;;;;;;;;5035230;28;20349;-22
2023/05/07 15:23:11;;;;;;;;;;;;;;;;;;5035105;28;20252;-25
2023/05/07 15:25:37;;;;;;;;;;;;;;;;;;5034732;28;19917;-23
2023/05/07 15:28:03;;;;;;;;;;;;;;;;;;5035061;28;20005;-23
2023/05/07 15:30:29;;;;;;;;;;;;;;;;;;5035031;28;19913;-27
2023/05/07 15:32:55;;;;;;;;;;;;;;;;;;5034919;28;19909;-26
2023/05/07 15:35:21;;;;;;;;;;;;;;;;;;5034955;28;20024;-25
2023/05/07 15:37:49;;;;;;;;;;;;;;;;;;5034974;28;19966;-23
2023/05/07 15:40:15;;;;;;;;;;;;;;;;;;5035000;28;19917;-27
2023/05/07 15:42:41;;;;;;;;;;;;;;;;;;5034869;28;20021;-23
2023/05/07 15:45:06;;;;;;;;;;;;;;;;;;5034780;28;19917;-23
2023/05/07 15:47:32;;;;;;;;;;;;;;;;;;5034782;28;19909;-28
2023/05/07 15:49:58;;;;;;;;;;;;;;;;;;5034806;28;19916;-23
2023/05/07 15:52:25;;;;;;;;;;;;;;;;;;5034955;28;19967;-26
2023/05/07 15:54:51;;;;;;;;;;;;;;;;;;5034665;28;19909;-23
2023/05/07 15:57:17;;;;;;;;;;;;;;;;;;5034969;28;19913;-25
2023/05/07 15:59:43;;;;;;;;;;;;;;;;;;5034683;28;19957;-28
2023/05/07 16:02:09;;;;;;;;;;;;;;;;;;5034568;28;19909;-25
2023/05/07 16:04:35;;;;;;;;;;;;;;;;;;5034434;28;19925;-22
2023/05/07 16:07:01;;;;;;;;;;;;;;;;;;5034822;28;20314;-23
2023/05/07 16:09:28;;;;;;;;;;;;;;;;;;5034766;28;19914;-22
2023/05/07 16:11:54;;;;;;;;;;;;;;;;;;5034505;28;19909;-25
2023/05/07 16:14:20;;;;;;;;;;;;;;;;;;5034762;28;19917;-27
2023/05/07 16:16:46;;;;;;;;;;;;;;;;;;5034516;28;19909;-26
2023/05/07 16:19:12;;;;;;;;;;;;;;;;;;5034425;28;19910;-25
2023/05/07 16:21:38;;;;;;;;;;;;;;;;;;5034729;28;20302;-26
2023/05/07 16:24:04;;;;;;;;;;;;;;;;;;5034336;28;20016;-22
2023/05/07 16:26:30;;;;;;;;;;;;;;;;;;5034521;28;19960;-22
2023/05/07 16:28:56;;;;;;;;;;;;;;;;;;5034318;28;19910;-24
2023/05/07 16:31:22;;;;;;;;;;;;;;;;;;5034625;28;20012;-23
2023/05/07 16:33:48;;;;;;;;;;;;;;;;;;5034303;28;19909;-23
2023/05/07 16:36:14;;;;;;;;;;;;;;;;;;5034302;28;19909;-22